Time;durP1;ratioP1;P1;durP2;ratioP2;P2;SDS_P1;SDS_P2;PMS_P1;PMS_P2;Temp;Humidity;BMP_temperature;BMP_pressure;BME280_temperature;BME280_humidity;BME280_pressure;Samples;Min_cycle;Max_cycle;Signal;HPM_P1;HPM_P2
2022/03/03 00:00:15;;;;;;;;;;;1.70;99.90;;;;;;4749462;30;19945;-78
2022/03/03 00:02:41;;;;;;;;;;;1.70;99.90;;;;;;4749514;30;19922;-78
2022/03/03 00:05:07;;;;;;;;;;;1.70;99.90;;;;;;4749619;30;19922;-78
2022/03/03 00:07:33;;;;;;;;;;;1.70;99.90;;;;;;4749679;30;19922;-78
2022/03/03 00:09:58;;;;;;;;;;;1.70;99.90;;;;;;4748984;30;19975;-78
2022/03/03 00:12:24;;;;;;;;;;;1.70;99.90;;;;;;4750070;30;20399;-78
2022/03/03 00:14:50;;;;;;;;;;;1.70;99.90;;;;;;4735015;30;19922;-78
2022/03/03 00:17:15;;;;;;;;;;;1.60;99.90;;;;;;4748786;30;19938;-78
2022/03/03 00:19:42;;;;;;;;;;;1.60;99.90;;;;;;4749579;30;19930;-78
2022/03/03 00:22:08;;;;;;;;;;;1.60;99.90;;;;;;4749038;30;19922;-78
2022/03/03 00:24:34;;;;;;;;;;;1.60;99.90;;;;;;4749027;30;19922;-78
2022/03/03 00:26:59;;;;;;;;;;;1.60;99.90;;;;;;4748496;30;19975;-78
2022/03/03 00:29:24;;;;;;;;;;;1.60;99.90;;;;;;4749253;30;19929;-78
2022/03/03 00:31:50;;;;;;;;;;;1.50;99.90;;;;;;4749303;30;20024;-78
2022/03/03 00:34:16;;;;;;;;;;;1.60;99.90;;;;;;4748935;30;19971;-78
2022/03/03 00:36:41;;;;;;;;;;;1.60;99.90;;;;;;4748983;30;19926;-78
2022/03/03 00:39:07;;;;;;;;;;;1.60;99.90;;;;;;4748866;30;20497;-78
2022/03/03 00:41:32;;;;;;;;;;;1.60;99.90;;;;;;4749356;30;19973;-78
2022/03/03 00:43:58;;;;;;;;;;;1.60;99.90;;;;;;4749035;30;20397;-78
2022/03/03 00:46:25;;;;;;;;;;;1.60;99.90;;;;;;4748758;30;19922;-78
2022/03/03 00:48:51;;;;;;;;;;;1.50;99.90;;;;;;4748808;30;19922;-78
2022/03/03 00:51:17;;;;;;;;;;;1.50;99.90;;;;;;4748800;30;19929;-78
2022/03/03 00:53:43;;;;;;;;;;;1.50;99.90;;;;;;4749086;30;19922;-78
2022/03/03 00:56:08;;;;;;;;;;;1.40;99.90;;;;;;4748611;30;19922;-78
2022/03/03 00:58:34;;;;;;;;;;;1.40;99.90;;;;;;4748709;30;20000;-78
2022/03/03 01:01:01;;;;;;;;;;;1.30;99.90;;;;;;4748276;30;20009;-78
2022/03/03 01:03:27;;;;;;;;;;;1.30;99.90;;;;;;4749211;30;20005;-78
2022/03/03 01:05:52;;;;;;;;;;;1.30;99.90;;;;;;4748489;30;20446;-78
2022/03/03 01:08:18;;;;;;;;;;;1.20;99.90;;;;;;4746120;30;19926;-78
2022/03/03 01:10:43;;;;;;;;;;;1.20;99.90;;;;;;4748863;30;19930;-78
2022/03/03 01:13:09;;;;;;;;;;;1.20;99.90;;;;;;4748686;30;19922;-78
2022/03/03 01:15:34;;;;;;;;;;;1.20;99.90;;;;;;4748808;30;19922;-78
2022/03/03 01:18:00;;;;;;;;;;;1.10;99.90;;;;;;4748599;30;19973;-78
2022/03/03 01:20:27;;;;;;;;;;;1.10;99.90;;;;;;4748054;30;19983;-78
2022/03/03 01:22:53;;;;;;;;;;;1.10;99.90;;;;;;4748684;30;19945;-78
2022/03/03 01:25:18;;;;;;;;;;;1.10;99.90;;;;;;4747814;30;20378;-78
2022/03/03 01:27:45;;;;;;;;;;;1.00;99.90;;;;;;4748142;30;19922;-78
2022/03/03 01:30:11;;;;;;;;;;;1.00;99.90;;;;;;4749028;30;19922;-78
2022/03/03 01:32:36;;;;;;;;;;;1.00;99.90;;;;;;4748904;30;19936;-78
2022/03/03 01:35:02;;;;;;;;;;;1.00;99.90;;;;;;4763186;30;19952;-77
2022/03/03 01:37:27;;;;;;;;;;;1.00;99.90;;;;;;4733106;30;20332;-78
2022/03/03 01:39:53;;;;;;;;;;;1.00;99.90;;;;;;4748005;30;19926;-78
2022/03/03 01:42:18;;;;;;;;;;;1.10;99.90;;;;;;4747704;30;19925;-78
2022/03/03 01:44:44;;;;;;;;;;;1.20;99.90;;;;;;4746792;30;20349;-78
2022/03/03 01:47:26;;;;;;;;;;;1.20;99.90;;;;;;4762776;30;19922;-78
2022/03/03 01:49:53;;;;;;;;;;;1.20;99.90;;;;;;4762684;30;19979;-78
2022/03/03 01:52:18;;;;;;;;;;;1.20;99.90;;;;;;4748014;30;19926;-78
2022/03/03 01:54:44;;;;;;;;;;;1.20;99.90;;;;;;4748273;30;19929;-78
2022/03/03 01:57:10;;;;;;;;;;;1.10;99.90;;;;;;4748231;30;19922;-78
2022/03/03 01:59:36;;;;;;;;;;;1.10;99.90;;;;;;4748035;30;19930;-78
2022/03/03 02:02:03;;;;;;;;;;;1.10;99.90;;;;;;4747860;30;19922;-78
2022/03/03 02:04:29;;;;;;;;;;;1.10;99.90;;;;;;4748439;30;19926;-77
2022/03/03 02:06:54;;;;;;;;;;;1.10;99.90;;;;;;4745912;30;20328;-77
2022/03/03 02:09:20;;;;;;;;;;;1.10;99.90;;;;;;4748276;30;19987;-77
2022/03/03 02:11:49;;;;;;;;;;;1.00;99.90;;;;;;4747839;30;19922;-76
2022/03/03 02:14:14;;;;;;;;;;;1.00;99.90;;;;;;4748009;30;19922;-77
2022/03/03 02:16:40;;;;;;;;;;;0.90;99.90;;;;;;4747611;30;20016;-76
2022/03/03 02:19:05;;;;;;;;;;;0.90;99.90;;;;;;4748189;30;20375;-76
2022/03/03 02:21:31;;;;;;;;;;;0.90;99.90;;;;;;4747932;30;19925;-77
2022/03/03 02:23:57;;;;;;;;;;;0.80;99.90;;;;;;4745879;30;19922;-77
2022/03/03 02:26:23;;;;;;;;;;;0.80;99.90;;;;;;4732822;30;20400;-76
2022/03/03 02:28:50;;;;;;;;;;;0.70;99.90;;;;;;4748062;30;19926;-76
2022/03/03 02:31:16;;;;;;;;;;;0.60;99.90;;;;;;4747836;30;20022;-77
2022/03/03 02:33:41;;;;;;;;;;;0.50;99.90;;;;;;4733131;30;19922;-77
2022/03/03 02:36:28;;;;;;;;;;;0.50;99.90;;;;;;4746655;30;19929;-77
2022/03/03 02:38:55;;;;;;;;;;;0.50;99.90;;;;;;4747989;30;20070;-77
2022/03/03 02:41:20;;;;;;;;;;;0.50;99.90;;;;;;4750948;30;19930;-76
2022/03/03 02:43:46;;;;;;;;;;;0.50;99.90;;;;;;4764942;30;19929;-76
2022/03/03 02:46:12;;;;;;;;;;;0.50;99.90;;;;;;4749927;30;19925;-77
2022/03/03 02:48:37;;;;;;;;;;;0.50;99.90;;;;;;4751456;30;19979;-76
2022/03/03 02:51:03;;;;;;;;;;;0.40;99.90;;;;;;4749513;30;20437;-77
2022/03/03 02:53:29;;;;;;;;;;;0.30;99.90;;;;;;4750684;30;19930;-77
2022/03/03 02:55:54;;;;;;;;;;;0.20;99.90;;;;;;4748436;30;19941;-76
2022/03/03 02:58:20;;;;;;;;;;;0.20;99.90;;;;;;4736314;30;20110;-76
2022/03/03 03:00:47;;;;;;;;;;;0.10;99.90;;;;;;4750662;30;20370;-76
2022/03/03 03:03:13;;;;;;;;;;;0.00;99.90;;;;;;4751220;30;20283;-76
2022/03/03 03:05:38;;;;;;;;;;;0.00;99.90;;;;;;4748691;30;20021;-77
2022/03/03 03:08:04;;;;;;;;;;;0.00;99.90;;;;;;4736457;30;20005;-77
2022/03/03 03:10:30;;;;;;;;;;;0.00;99.90;;;;;;4751124;30;19961;-77
2022/03/03 03:12:55;;;;;;;;;;;0.00;99.90;;;;;;4750830;30;19922;-76
2022/03/03 03:15:21;;;;;;;;;;;0.00;99.90;;;;;;4748758;30;19959;-76
2022/03/03 03:17:47;;;;;;;;;;;0.10;99.90;;;;;;4750145;30;19922;-77
2022/03/03 03:20:12;;;;;;;;;;;0.10;99.90;;;;;;4750529;30;20017;-77
2022/03/03 03:22:38;;;;;;;;;;;0.10;99.90;;;;;;4750718;30;20360;-77
2022/03/03 03:25:05;;;;;;;;;;;0.10;99.90;;;;;;4750563;30;20364;-76
2022/03/03 03:27:30;;;;;;;;;;;0.10;99.90;;;;;;4750046;30;19922;-77
2022/03/03 03:29:56;;;;;;;;;;;0.10;99.90;;;;;;4750526;30;20421;-77
2022/03/03 03:32:21;;;;;;;;;;;0.20;99.90;;;;;;4750394;30;19965;-76
2022/03/03 03:34:47;;;;;;;;;;;0.10;99.90;;;;;;4750636;30;20345;-77
2022/03/03 03:37:12;;;;;;;;;;;0.10;99.90;;;;;;4750045;30;19929;-77
2022/03/03 03:39:38;;;;;;;;;;;0.10;99.90;;;;;;4750186;30;20362;-77
2022/03/03 03:42:03;;;;;;;;;;;0.10;99.90;;;;;;4750376;30;19922;-77
2022/03/03 03:44:29;;;;;;;;;;;0.10;99.90;;;;;;4750155;30;20274;-76
2022/03/03 03:46:54;;;;;;;;;;;0.10;99.90;;;;;;4749522;30;19982;-76
2022/03/03 03:49:20;;;;;;;;;;;0.10;99.90;;;;;;4733906;30;19922;-76
2022/03/03 03:51:45;;;;;;;;;;;0.10;99.90;;;;;;4749903;30;19974;-76
2022/03/03 03:54:11;;;;;;;;;;;0.10;99.90;;;;;;4750261;30;20108;-76
2022/03/03 03:56:36;;;;;;;;;;;0.10;99.90;;;;;;4748424;30;19925;-76
2022/03/03 03:59:02;;;;;;;;;;;0.10;99.90;;;;;;4749395;30;19926;-77
2022/03/03 04:01:30;;;;;;;;;;;0.20;99.90;;;;;;4750110;30;20356;-77
2022/03/03 04:03:56;;;;;;;;;;;0.20;99.90;;;;;;4750051;30;19952;-76
2022/03/03 04:06:22;;;;;;;;;;;0.30;99.90;;;;;;4749757;30;19922;-76
2022/03/03 04:08:47;;;;;;;;;;;0.40;99.90;;;;;;4749560;30;20413;-76
2022/03/03 04:11:13;;;;;;;;;;;0.40;99.90;;;;;;4750146;30;20017;-76
2022/03/03 04:13:38;;;;;;;;;;;0.30;99.90;;;;;;4749849;30;19926;-76
2022/03/03 04:16:04;;;;;;;;;;;0.30;99.90;;;;;;4749461;30;19922;-76
2022/03/03 04:18:29;;;;;;;;;;;0.30;99.90;;;;;;4749307;30;19922;-76
2022/03/03 04:20:55;;;;;;;;;;;0.20;99.90;;;;;;4749762;30;19922;-76
2022/03/03 04:23:20;;;;;;;;;;;0.20;99.90;;;;;;4749155;30;19985;-76
2022/03/03 04:25:46;;;;;;;;;;;0.20;99.90;;;;;;4749379;30;20025;-77
2022/03/03 04:28:11;;;;;;;;;;;0.10;99.90;;;;;;4746625;30;20356;-77
2022/03/03 04:30:37;;;;;;;;;;;0.10;99.90;;;;;;4749601;30;19922;-77
2022/03/03 04:33:02;;;;;;;;;;;0.00;99.90;;;;;;4749263;30;19922;-77
2022/03/03 04:35:28;;;;;;;;;;;0.00;99.90;;;;;;4748451;30;19957;-77
2022/03/03 04:37:54;;;;;;;;;;;-0.10;99.90;;;;;;4749007;30;20327;-76
2022/03/03 04:40:20;;;;;;;;;;;-0.10;99.90;;;;;;4748866;30;20028;-77
2022/03/03 04:42:45;;;;;;;;;;;-0.20;99.90;;;;;;4749278;30;20007;-77
2022/03/03 04:45:11;;;;;;;;;;;-0.30;99.90;;;;;;4748894;30;19952;-76
2022/03/03 04:47:36;;;;;;;;;;;-0.30;99.90;;;;;;4749010;30;20048;-76
2022/03/03 04:50:02;;;;;;;;;;;-0.40;99.90;;;;;;4763566;30;19926;-77
2022/03/03 04:52:28;;;;;;;;;;;-0.50;99.90;;;;;;4748165;30;19977;-76
2022/03/03 04:54:53;;;;;;;;;;;-0.50;99.90;;;;;;4748918;30;19978;-76
2022/03/03 04:57:18;;;;;;;;;;;-0.50;99.90;;;;;;4748791;30;19926;-76
2022/03/03 04:59:44;;;;;;;;;;;-0.50;99.90;;;;;;4734380;30;20080;-77
2022/03/03 05:02:09;;;;;;;;;;;-0.50;99.90;;;;;;4748849;30;19922;-77
2022/03/03 05:04:35;;;;;;;;;;;-0.50;99.90;;;;;;4734074;30;20415;-76
2022/03/03 05:07:01;;;;;;;;;;;-0.50;99.90;;;;;;4746963;30;20060;-77
2022/03/03 05:09:26;;;;;;;;;;;-0.40;99.90;;;;;;4748408;30;19929;-77
2022/03/03 05:11:52;;;;;;;;;;;-0.30;99.90;;;;;;4748729;30;19929;-76
2022/03/03 05:14:17;;;;;;;;;;;-0.30;99.90;;;;;;4748519;30;20317;-76
2022/03/03 05:16:43;;;;;;;;;;;-0.20;99.90;;;;;;4746352;30;19922;-76
2022/03/03 05:19:08;;;;;;;;;;;-0.20;99.90;;;;;;4746350;30;19929;-77
2022/03/03 05:21:34;;;;;;;;;;;-0.20;99.90;;;;;;4748732;30;19929;-76
2022/03/03 05:24:00;;;;;;;;;;;-0.20;99.90;;;;;;4748388;30;20016;-76
2022/03/03 05:26:25;;;;;;;;;;;-0.20;99.90;;;;;;4748415;30;20305;-76
2022/03/03 05:28:51;;;;;;;;;;;-0.20;99.90;;;;;;4748396;30;20008;-76
2022/03/03 05:31:16;;;;;;;;;;;-0.20;99.90;;;;;;4748176;30;19922;-77
2022/03/03 05:33:43;;;;;;;;;;;-0.20;99.90;;;;;;4763505;30;19929;-76
2022/03/03 05:36:10;;;;;;;;;;;-0.30;99.90;;;;;;4748188;30;20554;-76
2022/03/03 05:38:35;;;;;;;;;;;-0.30;99.90;;;;;;4748372;30;19965;-76
2022/03/03 05:41:02;;;;;;;;;;;-0.30;99.90;;;;;;4748128;30;19957;-76
2022/03/03 05:43:28;;;;;;;;;;;-0.30;99.90;;;;;;4748271;30;20406;-76
2022/03/03 05:45:55;;;;;;;;;;;-0.30;99.90;;;;;;4748101;30;20329;-77
2022/03/03 05:48:21;;;;;;;;;;;-0.20;99.90;;;;;;4748757;30;19922;-77
2022/03/03 05:50:46;;;;;;;;;;;-0.30;99.90;;;;;;4747195;30;19929;-77
2022/03/03 05:53:12;;;;;;;;;;;-0.30;99.90;;;;;;4748532;30;20379;-77
2022/03/03 05:55:41;;;;;;;;;;;-0.30;99.90;;;;;;4747782;30;19926;-77
2022/03/03 05:58:09;;;;;;;;;;;-0.30;99.90;;;;;;4747114;30;19976;-77
2022/03/03 06:00:35;;;;;;;;;;;-0.30;99.90;;;;;;4747600;30;19926;-77
2022/03/03 06:03:01;;;;;;;;;;;-0.40;99.90;;;;;;4748522;30;19936;-77
2022/03/03 06:05:27;;;;;;;;;;;-0.40;99.90;;;;;;4760685;30;19938;-77
2022/03/03 06:07:54;;;;;;;;;;;-0.40;99.90;;;;;;4748198;30;19979;-77
2022/03/03 06:10:23;;;;;;;;;;;-0.40;99.90;;;;;;4748345;30;20352;-77
2022/03/03 06:12:52;;;;;;;;;;;-0.40;99.90;;;;;;4748246;30;19930;-77
2022/03/03 06:15:21;;;;;;;;;;;-0.40;99.90;;;;;;4744257;30;19926;-77
2022/03/03 06:17:47;;;;;;;;;;;-0.30;99.90;;;;;;4738190;30;20285;-77
2022/03/03 06:20:13;;;;;;;;;;;-0.30;99.90;;;;;;4752677;30;20016;-77
2022/03/03 06:22:39;;;;;;;;;;;-0.30;99.90;;;;;;4753182;30;20377;-77
2022/03/03 06:25:05;;;;;;;;;;;-0.30;99.90;;;;;;4753076;30;20390;-77
2022/03/03 06:27:31;;;;;;;;;;;-0.30;99.90;;;;;;4752449;30;20003;-77
2022/03/03 06:29:57;;;;;;;;;;;-0.20;99.90;;;;;;4752737;30;19973;-77
2022/03/03 06:32:22;;;;;;;;;;;-0.20;99.90;;;;;;4752856;30;20168;-77
2022/03/03 06:34:48;;;;;;;;;;;-0.10;99.90;;;;;;4737740;30;20016;-77
2022/03/03 06:37:13;;;;;;;;;;;-0.20;99.90;;;;;;4752348;30;20306;-77
2022/03/03 06:39:39;;;;;;;;;;;-0.10;99.90;;;;;;4751079;30;19933;-77
2022/03/03 06:42:04;;;;;;;;;;;-0.10;99.90;;;;;;4738580;30;19930;-77
2022/03/03 06:44:30;;;;;;;;;;;-0.20;99.90;;;;;;4752400;30;20038;-77
2022/03/03 06:46:55;;;;;;;;;;;-0.10;99.90;;;;;;4752113;30;19946;-77
2022/03/03 06:49:21;;;;;;;;;;;-0.20;99.90;;;;;;4752150;30;19922;-77
2022/03/03 06:51:48;;;;;;;;;;;-0.20;99.90;;;;;;4752311;30;19929;-77
2022/03/03 06:54:14;;;;;;;;;;;-0.20;99.90;;;;;;4752140;30;19922;-77
2022/03/03 06:56:46;;;;;;;;;;;-0.20;99.90;;;;;;4751721;30;19929;-77
2022/03/03 06:59:12;;;;;;;;;;;-0.20;99.90;;;;;;4751722;30;20021;-77
2022/03/03 07:01:40;;;;;;;;;;;-0.20;99.90;;;;;;4752343;30;19922;-78
2022/03/03 07:04:07;;;;;;;;;;;-0.20;99.90;;;;;;4745244;30;20286;-79
2022/03/03 07:06:33;;;;;;;;;;;-0.10;99.90;;;;;;4752056;30;19922;-78
2022/03/03 07:08:58;;;;;;;;;;;-0.10;99.90;;;;;;4751549;30;20309;-78
2022/03/03 07:11:24;;;;;;;;;;;-0.10;99.90;;;;;;4752099;30;19944;-79
2022/03/03 07:13:50;;;;;;;;;;;0.00;99.90;;;;;;4737134;30;20338;-79
2022/03/03 07:16:34;;;;;;;;;;;0.00;99.90;;;;;;4751732;30;20314;-78
2022/03/03 07:19:01;;;;;;;;;;;0.10;99.90;;;;;;4729793;30;20014;-77
2022/03/03 07:21:39;;;;;;;;;;;0.10;99.90;;;;;;4751857;30;19980;-77
2022/03/03 07:24:25;;;;;;;;;;;0.20;99.90;;;;;;4751716;30;19921;-76
2022/03/03 07:26:50;;;;;;;;;;;0.30;99.90;;;;;;4744505;30;19929;-76
2022/03/03 07:29:18;;;;;;;;;;;0.40;99.90;;;;;;4736999;30;19921;-77
2022/03/03 07:31:50;;;;;;;;;;;0.50;99.90;;;;;;4745121;30;20004;-77
2022/03/03 07:34:17;;;;;;;;;;;0.50;99.90;;;;;;4751551;30;20390;-76
2022/03/03 07:36:44;;;;;;;;;;;0.60;99.90;;;;;;4729817;30;19922;-76
2022/03/03 07:39:10;;;;;;;;;;;0.70;99.90;;;;;;4742094;30;19930;-78
2022/03/03 07:41:36;;;;;;;;;;;0.70;99.90;;;;;;4746351;30;19922;-78
2022/03/03 07:44:01;;;;;;;;;;;0.70;99.90;;;;;;4751066;30;20040;-78
2022/03/03 07:46:27;;;;;;;;;;;0.70;99.90;;;;;;4743882;30;20008;-78
2022/03/03 07:48:56;;;;;;;;;;;0.80;99.90;;;;;;4743902;30;20017;-78
2022/03/03 07:51:22;;;;;;;;;;;0.80;99.90;;;;;;4750674;30;19922;-78
2022/03/03 07:53:47;;;;;;;;;;;0.90;99.90;;;;;;4751716;30;19966;-78
2022/03/03 07:56:21;;;;;;;;;;;1.00;99.90;;;;;;4750878;30;20375;-79
2022/03/03 07:58:47;;;;;;;;;;;1.00;99.90;;;;;;4751186;30;20020;-78
2022/03/03 08:01:17;;;;;;;;;;;1.10;99.90;;;;;;4751480;30;20021;-78
2022/03/03 08:03:46;;;;;;;;;;;1.20;99.90;;;;;;4737352;30;19929;-78
2022/03/03 08:06:13;;;;;;;;;;;1.20;99.90;;;;;;4736202;30;19928;-78
2022/03/03 08:08:38;;;;;;;;;;;1.30;99.90;;;;;;4743484;30;19926;-78
2022/03/03 08:11:05;;;;;;;;;;;1.30;99.90;;;;;;4751084;30;19929;-78
2022/03/03 08:13:31;;;;;;;;;;;1.40;99.90;;;;;;4750451;30;20467;-78
2022/03/03 08:15:57;;;;;;;;;;;1.50;99.90;;;;;;4750836;30;19973;-77
2022/03/03 08:18:27;;;;;;;;;;;1.60;99.90;;;;;;4751171;30;19922;-78
2022/03/03 08:20:54;;;;;;;;;;;1.70;99.90;;;;;;4750669;30;19926;-79
2022/03/03 08:23:20;;;;;;;;;;;1.80;99.90;;;;;;4751486;30;19925;-79
2022/03/03 08:25:47;;;;;;;;;;;1.90;99.90;;;;;;4729883;30;20382;-79
2022/03/03 08:28:12;;;;;;;;;;;2.00;99.90;;;;;;4753811;30;19972;-79
2022/03/03 08:30:38;;;;;;;;;;;2.20;99.90;;;;;;4739159;30;19922;-79
2022/03/03 08:33:08;;;;;;;;;;;2.30;99.90;;;;;;4754427;30;19922;-79
2022/03/03 08:35:39;;;;;;;;;;;2.40;99.90;;;;;;4754195;30;20332;-80
2022/03/03 08:38:05;;;;;;;;;;;2.60;99.90;;;;;;4753247;30;19932;-81
2022/03/03 08:40:31;;;;;;;;;;;2.70;99.90;;;;;;4750687;30;20020;-78
2022/03/03 08:42:59;;;;;;;;;;;2.90;99.90;;;;;;4750369;30;19929;-78
2022/03/03 08:45:29;;;;;;;;;;;3.00;99.90;;;;;;4750679;30;19990;-77
2022/03/03 08:47:56;;;;;;;;;;;3.20;99.90;;;;;;4750140;30;20011;-77
2022/03/03 08:50:21;;;;;;;;;;;3.30;99.90;;;;;;4749916;30;19937;-77
2022/03/03 08:52:47;;;;;;;;;;;3.40;99.90;;;;;;4750752;30;20371;-78
2022/03/03 08:55:13;;;;;;;;;;;3.50;99.90;;;;;;4750142;30;19922;-77
2022/03/03 08:57:39;;;;;;;;;;;3.60;99.90;;;;;;4746443;30;19932;-77
2022/03/03 09:00:07;;;;;;;;;;;3.70;99.90;;;;;;4746374;30;19926;-77
2022/03/03 09:02:32;;;;;;;;;;;3.80;99.90;;;;;;4734893;30;19965;-78
2022/03/03 09:04:58;;;;;;;;;;;4.00;99.90;;;;;;4750371;30;20427;-78
2022/03/03 09:07:23;;;;;;;;;;;4.00;99.90;;;;;;4735071;30;19987;-78
2022/03/03 09:09:49;;;;;;;;;;;4.20;99.90;;;;;;4735285;30;19926;-78
2022/03/03 09:12:14;;;;;;;;;;;4.30;99.90;;;;;;4750507;30;19945;-78
2022/03/03 09:14:40;;;;;;;;;;;4.40;99.90;;;;;;4750056;30;19926;-77
2022/03/03 09:17:06;;;;;;;;;;;4.60;99.90;;;;;;4735050;30;19922;-77
2022/03/03 09:19:32;;;;;;;;;;;4.60;99.90;;;;;;4749555;30;19926;-78
2022/03/03 09:21:57;;;;;;;;;;;4.80;99.90;;;;;;4749614;30;19922;-78
2022/03/03 09:24:23;;;;;;;;;;;4.90;99.90;;;;;;4749717;30;20361;-78
2022/03/03 09:26:50;;;;;;;;;;;5.10;99.90;;;;;;4749296;30;19976;-78
2022/03/03 09:29:17;;;;;;;;;;;5.20;99.90;;;;;;4749754;30;20267;-78
2022/03/03 09:31:43;;;;;;;;;;;5.30;99.90;;;;;;4749957;30;19922;-77
2022/03/03 09:34:09;;;;;;;;;;;5.40;99.90;;;;;;4739760;30;19948;-77
2022/03/03 09:36:34;;;;;;;;;;;5.50;99.90;;;;;;4744985;30;19953;-77
2022/03/03 09:39:00;;;;;;;;;;;5.60;99.90;;;;;;4749481;30;19983;-78
2022/03/03 09:41:25;;;;;;;;;;;5.70;99.90;;;;;;4735228;30;19923;-78
2022/03/03 09:43:51;;;;;;;;;;;5.70;99.90;;;;;;4749395;30;20009;-77
2022/03/03 09:46:16;;;;;;;;;;;5.90;99.90;;;;;;4749017;30;19952;-77
2022/03/03 09:48:42;;;;;;;;;;;6.00;99.90;;;;;;4749281;30;19928;-77
2022/03/03 09:51:07;;;;;;;;;;;6.10;99.90;;;;;;4749143;30;19922;-77
2022/03/03 09:53:33;;;;;;;;;;;6.30;99.90;;;;;;4749716;30;20059;-77
2022/03/03 09:55:58;;;;;;;;;;;6.40;99.90;;;;;;4749565;30;20402;-77
2022/03/03 09:58:24;;;;;;;;;;;6.50;99.90;;;;;;4749895;30;20012;-77
2022/03/03 10:00:49;;;;;;;;;;;6.70;99.90;;;;;;4749102;30;19926;-77
2022/03/03 10:03:16;;;;;;;;;;;6.80;99.90;;;;;;4748826;30;19929;-77
2022/03/03 10:05:47;;;;;;;;;;;6.90;99.90;;;;;;4742811;30;19934;-77
2022/03/03 10:08:14;;;;;;;;;;;7.20;99.90;;;;;;4749367;30;19922;-77
2022/03/03 10:10:40;;;;;;;;;;;7.30;99.90;;;;;;4749210;30;20503;-77
2022/03/03 10:13:06;;;;;;;;;;;7.50;99.90;;;;;;4734577;30;19976;-77
2022/03/03 10:15:32;;;;;;;;;;;7.60;99.90;;;;;;4740899;30;19930;-77
2022/03/03 10:18:02;;;;;;;;;;;7.80;99.90;;;;;;4743339;30;19922;-78
2022/03/03 10:20:29;;;;;;;;;;;7.90;99.90;;;;;;4741704;30;20450;-77
2022/03/03 10:22:58;;;;;;;;;;;7.90;99.90;;;;;;4749387;30;20302;-77
2022/03/03 10:25:32;;;;;;;;;;;8.00;99.90;;;;;;4749151;30;19995;-77
2022/03/03 10:28:13;;;;;;;;;;;8.00;99.90;;;;;;4748551;30;19926;-78
2022/03/03 10:30:57;;;;;;;;;;;8.20;99.90;;;;;;4749166;30;19921;-77
2022/03/03 10:33:25;;;;;;;;;;;8.20;99.90;;;;;;4749005;30;20096;-77
2022/03/03 10:35:57;;;;;;;;;;;8.30;99.80;;;;;;4741297;30;19976;-77
2022/03/03 10:38:22;;;;;;;;;;;8.30;99.90;;;;;;4748937;30;19929;-77
2022/03/03 10:40:48;;;;;;;;;;;8.30;99.90;;;;;;4751317;30;20025;-79
2022/03/03 10:43:13;;;;;;;;;;;8.30;99.90;;;;;;4751985;30;20008;-80
2022/03/03 10:45:52;;;;;;;;;;;8.40;99.90;;;;;;4744670;30;19932;-79
2022/03/03 10:48:20;;;;;;;;;;;8.50;99.90;;;;;;4749101;30;19987;-77
2022/03/03 10:50:47;;;;;;;;;;;8.70;99.90;;;;;;4743406;30;19922;-77
2022/03/03 10:53:15;;;;;;;;;;;8.90;99.90;;;;;;4747478;30;19922;-77
2022/03/03 10:55:57;;;;;;;;;;;9.00;98.60;;;;;;4749262;30;19980;-78
2022/03/03 10:58:42;;;;;;;;;;;9.20;99.90;;;;;;4749236;30;19926;-77
2022/03/03 11:01:08;;;;;;;;;;;9.30;94.50;;;;;;4750500;30;19965;-79
2022/03/03 11:03:35;;;;;;;;;;;9.50;95.50;;;;;;4752276;30;19979;-78
2022/03/03 11:06:02;;;;;;;;;;;9.60;93.90;;;;;;4752115;30;19922;-77
2022/03/03 11:08:28;;;;;;;;;;;9.80;90.00;;;;;;4753294;30;19922;-79
2022/03/03 11:10:53;;;;;;;;;;;9.80;91.50;;;;;;4755108;30;20379;-79
2022/03/03 11:13:19;;;;;;;;;;;9.80;86.50;;;;;;4756200;30;19949;-79
2022/03/03 11:15:44;;;;;;;;;;;9.60;94.20;;;;;;4755544;30;19973;-78
2022/03/03 11:18:11;;;;;;;;;;;9.70;93.00;;;;;;4755676;30;19977;-79
2022/03/03 11:20:37;;;;;;;;;;;9.80;95.00;;;;;;4740328;30;20458;-78
2022/03/03 11:23:02;;;;;;;;;;;9.90;79.50;;;;;;4756228;30;19979;-78
2022/03/03 11:25:31;;;;;;;;;;;10.00;78.90;;;;;;4755641;30;19969;-81
2022/03/03 11:28:07;;;;;;;;;;;10.00;99.70;;;;;;4755526;30;19992;-78
2022/03/03 11:30:34;;;;;;;;;;;10.00;88.00;;;;;;4754990;30;19922;-78
2022/03/03 11:33:26;;;;;;;;;;;10.10;85.30;;;;;;4753476;30;19991;-79
2022/03/03 11:35:54;;;;;;;;;;;10.30;91.30;;;;;;4752465;30;19926;-78
2022/03/03 11:38:20;;;;;;;;;;;10.30;74.00;;;;;;4754455;30;19945;-79
2022/03/03 11:40:53;;;;;;;;;;;10.40;75.40;;;;;;4755094;30;20048;-78
2022/03/03 11:43:18;;;;;;;;;;;10.50;74.20;;;;;;4754476;30;19972;-79
2022/03/03 11:45:51;;;;;;;;;;;10.70;73.60;;;;;;4754754;30;20335;-78
2022/03/03 11:48:19;;;;;;;;;;;10.90;73.10;;;;;;4754885;30;19967;-79
2022/03/03 11:50:45;;;;;;;;;;;10.90;66.60;;;;;;4754486;30;19922;-80
2022/03/03 11:53:10;;;;;;;;;;;11.00;72.10;;;;;;4754053;30;20287;-79
2022/03/03 11:55:43;;;;;;;;;;;10.90;67.80;;;;;;4755175;30;19922;-79
2022/03/03 11:58:12;;;;;;;;;;;10.80;70.40;;;;;;4739817;30;19926;-79
2022/03/03 12:00:42;;;;;;;;;;;10.90;73.80;;;;;;4740538;30;20029;-79
2022/03/03 12:03:08;;;;;;;;;;;11.10;78.20;;;;;;4754434;30;20021;-79
2022/03/03 12:05:36;;;;;;;;;;;11.10;75.10;;;;;;4755099;30;20314;-79
2022/03/03 12:08:06;;;;;;;;;;;11.30;66.00;;;;;;4754867;30;20359;-79
2022/03/03 12:10:32;;;;;;;;;;;11.20;66.60;;;;;;4754986;30;19922;-79
2022/03/03 12:13:16;;;;;;;;;;;11.10;67.20;;;;;;4753561;30;20005;-79
2022/03/03 12:16:02;;;;;;;;;;;11.30;67.60;;;;;;4755123;30;20335;-79
2022/03/03 12:18:34;;;;;;;;;;;11.30;69.50;;;;;;4756033;30;19977;-79
2022/03/03 12:21:18;;;;;;;;;;;11.40;67.00;;;;;;4755877;30;19949;-80
2022/03/03 12:23:43;;;;;;;;;;;11.30;65.00;;;;;;4758938;30;19983;-80
2022/03/03 12:26:09;;;;;;;;;;;11.20;65.30;;;;;;4754318;30;20297;-80
2022/03/03 12:28:35;;;;;;;;;;;11.40;66.40;;;;;;4762351;30;19929;-80
2022/03/03 12:31:01;;;;;;;;;;;11.50;65.40;;;;;;4769943;30;19976;-80
2022/03/03 12:33:28;;;;;;;;;;;11.80;67.10;;;;;;4754542;30;19921;-81
2022/03/03 12:36:01;;;;;;;;;;;11.90;67.10;;;;;;4754552;30;19972;-77
2022/03/03 12:38:27;;;;;;;;;;;12.00;61.20;;;;;;4751815;30;19961;-80
2022/03/03 12:40:54;;;;;;;;;;;12.30;77.20;;;;;;4755244;30;19926;-78
2022/03/03 12:43:20;;;;;;;;;;;12.30;64.70;;;;;;4739310;30;19925;-79
2022/03/03 12:45:48;;;;;;;;;;;12.30;62.10;;;;;;4740964;30;20062;-80
2022/03/03 12:48:13;;;;;;;;;;;12.30;69.70;;;;;;4754429;30;20290;-79
2022/03/03 12:50:40;;;;;;;;;;;12.30;62.90;;;;;;4755176;30;19930;-80
2022/03/03 12:53:05;;;;;;;;;;;12.30;61.20;;;;;;4754361;30;19929;-80
2022/03/03 12:55:35;;;;;;;;;;;12.30;58.30;;;;;;4754177;30;19922;-79
2022/03/03 12:58:03;;;;;;;;;;;12.50;58.80;;;;;;4753962;30;19922;-80
2022/03/03 13:00:31;;;;;;;;;;;12.80;58.20;;;;;;4754164;30;19956;-80
2022/03/03 13:02:58;;;;;;;;;;;13.30;57.10;;;;;;4753739;30;19995;-80
2022/03/03 13:05:30;;;;;;;;;;;13.60;57.10;;;;;;4754502;30;19928;-80
2022/03/03 13:07:56;;;;;;;;;;;13.40;56.30;;;;;;4754230;30;19922;-81
2022/03/03 13:10:21;;;;;;;;;;;13.40;59.00;;;;;;4754450;30;19929;-80
2022/03/03 13:12:48;;;;;;;;;;;13.30;55.10;;;;;;4739085;30;20284;-80
2022/03/03 13:15:13;;;;;;;;;;;13.30;54.10;;;;;;4753952;30;19922;-81
2022/03/03 13:17:58;;;;;;;;;;;13.40;55.30;;;;;;4754464;30;19962;-80
2022/03/03 13:20:24;;;;;;;;;;;13.30;54.80;;;;;;4753662;30;19933;-80
2022/03/03 13:22:50;;;;;;;;;;;13.60;56.00;;;;;;4753978;30;20041;-80
2022/03/03 13:25:16;;;;;;;;;;;13.90;53.80;;;;;;4754586;30;20063;-80
2022/03/03 13:27:43;;;;;;;;;;;14.10;52.20;;;;;;4754170;30;19922;-80
2022/03/03 13:30:09;;;;;;;;;;;14.30;52.30;;;;;;4741725;30;19961;-80
2022/03/03 13:32:44;;;;;;;;;;;14.60;53.40;;;;;;4751426;30;19922;-79
2022/03/03 13:35:10;;;;;;;;;;;14.80;53.00;;;;;;4753369;30;19921;-80
2022/03/03 13:37:35;;;;;;;;;;;15.00;51.40;;;;;;4754308;30;19929;-81
2022/03/03 13:40:18;;;;;;;;;;;14.90;50.90;;;;;;4751155;30;19926;-80
2022/03/03 13:42:44;;;;;;;;;;;14.80;48.90;;;;;;4751871;30;19922;-80
2022/03/03 13:45:09;;;;;;;;;;;14.90;49.10;;;;;;4732367;30;19922;-80
2022/03/03 13:47:40;;;;;;;;;;;15.00;49.70;;;;;;4753952;30;20374;-80
2022/03/03 13:50:07;;;;;;;;;;;15.10;50.80;;;;;;4754436;30;19933;-80
2022/03/03 13:52:33;;;;;;;;;;;14.90;53.30;;;;;;4738987;30;20451;-80
2022/03/03 13:55:02;;;;;;;;;;;14.70;49.80;;;;;;4754441;30;19926;-80
2022/03/03 13:57:32;;;;;;;;;;;14.70;50.10;;;;;;4753604;30;19926;-78
2022/03/03 13:59:58;;;;;;;;;;;14.70;51.40;;;;;;4752456;30;19990;-78
2022/03/03 14:02:25;;;;;;;;;;;14.70;50.80;;;;;;4754400;30;19922;-80
2022/03/03 14:05:02;;;;;;;;;;;14.60;49.40;;;;;;4755257;30;19952;-80
2022/03/03 14:07:28;;;;;;;;;;;14.70;49.20;;;;;;4739533;30;20131;-79
2022/03/03 14:09:54;;;;;;;;;;;14.70;48.20;;;;;;4754973;30;19953;-80
2022/03/03 14:12:20;;;;;;;;;;;14.70;49.20;;;;;;4749744;30;19926;-79
2022/03/03 14:14:45;;;;;;;;;;;14.40;47.90;;;;;;4752754;30;19922;-79
2022/03/03 14:17:11;;;;;;;;;;;14.30;48.80;;;;;;4752727;30;19938;-79
2022/03/03 14:19:40;;;;;;;;;;;14.40;50.50;;;;;;4753777;30;19999;-80
2022/03/03 14:22:06;;;;;;;;;;;14.40;50.50;;;;;;4739410;30;19922;-79
2022/03/03 14:24:32;;;;;;;;;;;14.30;50.50;;;;;;4753946;30;20055;-80